sensor_id;sensor_type;location;lat;lon;timestamp;temperature;humidity
36800;DHT22;22752;51.960;5.886;2022-10-16T00:00:35;12.50;99.90
36800;DHT22;22752;51.960;5.886;2022-10-16T00:03:02;12.50;99.90
36800;DHT22;22752;51.960;5.886;2022-10-16T00:05:28;12.40;99.90
36800;DHT22;22752;51.960;5.886;2022-10-16T00:07:53;12.40;99.90
36800;DHT22;22752;51.960;5.886;2022-10-16T00:10:19;12.30;99.90
36800;DHT22;22752;51.960;5.886;2022-10-16T00:12:45;12.30;99.90
36800;DHT22;22752;51.960;5.886;2022-10-16T00:15:11;12.30;99.90
36800;DHT22;22752;51.960;5.886;2022-10-16T00:17:36;12.20;99.90
36800;DHT22;22752;51.960;5.886;2022-10-16T00:20:02;12.20;99.90
36800;DHT22;22752;51.960;5.886;2022-10-16T00:22:28;12.20;99.90
36800;DHT22;22752;51.960;5.886;2022-10-16T00:24:54;12.20;99.90
36800;DHT22;22752;51.960;5.886;2022-10-16T00:27:19;12.20;99.90
36800;DHT22;22752;51.960;5.886;2022-10-16T00:29:50;12.20;99.90
36800;DHT22;22752;51.960;5.886;2022-10-16T00:32:16;12.20;99.90
36800;DHT22;22752;51.960;5.886;2022-10-16T00:34:42;12.20;99.90
36800;DHT22;22752;51.960;5.886;2022-10-16T00:37:08;12.20;99.90
36800;DHT22;22752;51.960;5.886;2022-10-16T00:39:34;12.20;99.90
36800;DHT22;22752;51.960;5.886;2022-10-16T00:41:59;12.20;99.90
36800;DHT22;22752;51.960;5.886;2022-10-16T00:44:46;12.20;99.90
36800;DHT22;22752;51.960;5.886;2022-10-16T00:47:39;12.20;99.90
36800;DHT22;22752;51.960;5.886;2022-10-16T00:50:34;12.20;99.90
36800;DHT22;22752;51.960;5.886;2022-10-16T00:53:01;12.20;99.90
36800;DHT22;22752;51.960;5.886;2022-10-16T00:55:28;12.20;99.90
36800;DHT22;22752;51.960;5.886;2022-10-16T00:57:56;12.20;99.90
36800;DHT22;22752;51.960;5.886;2022-10-16T01:00:26;12.20;99.90
36800;DHT22;22752;51.960;5.886;2022-10-16T01:02:57;12.20;99.90
36800;DHT22;22752;51.960;5.886;2022-10-16T01:05:25;12.20;99.90
36800;DHT22;22752;51.960;5.886;2022-10-16T01:08:16;12.20;99.90
36800;DHT22;22752;51.960;5.886;2022-10-16T01:10:54;12.20;99.90
36800;DHT22;22752;51.960;5.886;2022-10-16T01:13:36;12.20;99.90
36800;DHT22;22752;51.960;5.886;2022-10-16T01:16:09;12.20;99.90
36800;DHT22;22752;51.960;5.886;2022-10-16T01:18:53;12.20;99.90
36800;DHT22;22752;51.960;5.886;2022-10-16T01:21:27;12.30;99.90
36800;DHT22;22752;51.960;5.886;2022-10-16T01:31:31;12.30;99.90
36800;DHT22;22752;51.960;5.886;2022-10-16T01:34:04;12.20;99.90
36800;DHT22;22752;51.960;5.886;2022-10-16T01:36:37;12.30;99.90
36800;DHT22;22752;51.960;5.886;2022-10-16T01:39:04;12.30;99.90
36800;DHT22;22752;51.960;5.886;2022-10-16T01:41:34;12.30;99.90
36800;DHT22;22752;51.960;5.886;2022-10-16T01:44:06;12.30;99.90
36800;DHT22;22752;51.960;5.886;2022-10-16T01:46:34;12.40;99.90
36800;DHT22;22752;51.960;5.886;2022-10-16T01:49:02;12.50;99.90
36800;DHT22;22752;51.960;5.886;2022-10-16T01:51:29;12.50;99.90
36800;DHT22;22752;51.960;5.886;2022-10-16T01:53:58;12.60;99.90
36800;DHT22;22752;51.960;5.886;2022-10-16T01:56:25;12.70;99.90
36800;DHT22;22752;51.960;5.886;2022-10-16T01:58:59;12.70;99.90
36800;DHT22;22752;51.960;5.886;2022-10-16T02:01:29;12.80;99.90
36800;DHT22;22752;51.960;5.886;2022-10-16T02:03:59;12.80;99.90
36800;DHT22;22752;51.960;5.886;2022-10-16T02:06:27;12.90;99.90
36800;DHT22;22752;51.960;5.886;2022-10-16T02:08:53;12.90;99.90
36800;DHT22;22752;51.960;5.886;2022-10-16T02:11:19;12.90;99.90
36800;DHT22;22752;51.960;5.886;2022-10-16T02:14:02;12.80;99.90
36800;DHT22;22752;51.960;5.886;2022-10-16T02:16:43;12.80;99.90
36800;DHT22;22752;51.960;5.886;2022-10-16T02:19:13;12.80;99.90
36800;DHT22;22752;51.960;5.886;2022-10-16T02:21:44;12.80;99.90
36800;DHT22;22752;51.960;5.886;2022-10-16T02:24:18;12.90;99.90
36800;DHT22;22752;51.960;5.886;2022-10-16T02:26:56;13.00;99.90
36800;DHT22;22752;51.960;5.886;2022-10-16T02:29:26;13.00;99.90
36800;DHT22;22752;51.960;5.886;2022-10-16T02:32:01;13.00;99.90
36800;DHT22;22752;51.960;5.886;2022-10-16T02:34:30;12.90;99.90
36800;DHT22;22752;51.960;5.886;2022-10-16T02:36:58;12.90;99.90
36800;DHT22;22752;51.960;5.886;2022-10-16T02:39:24;12.90;99.90
36800;DHT22;22752;51.960;5.886;2022-10-16T02:41:51;12.80;99.90
36800;DHT22;22752;51.960;5.886;2022-10-16T02:44:17;12.80;99.90
36800;DHT22;22752;51.960;5.886;2022-10-16T02:46:42;12.70;99.90
36800;DHT22;22752;51.960;5.886;2022-10-16T02:49:08;12.70;99.90
36800;DHT22;22752;51.960;5.886;2022-10-16T02:51:34;12.70;99.90
36800;DHT22;22752;51.960;5.886;2022-10-16T02:53:59;12.70;99.90
36800;DHT22;22752;51.960;5.886;2022-10-16T02:56:25;12.70;99.90
36800;DHT22;22752;51.960;5.886;2022-10-16T02:58:50;12.60;99.90
36800;DHT22;22752;51.960;5.886;2022-10-16T03:01:16;12.60;99.90
36800;DHT22;22752;51.960;5.886;2022-10-16T03:03:42;12.60;99.90
36800;DHT22;22752;51.960;5.886;2022-10-16T03:06:08;12.50;99.90
36800;DHT22;22752;51.960;5.886;2022-10-16T03:08:34;12.50;99.90
36800;DHT22;22752;51.960;5.886;2022-10-16T03:10:59;12.50;99.90
36800;DHT22;22752;51.960;5.886;2022-10-16T03:13:25;12.60;99.90
36800;DHT22;22752;51.960;5.886;2022-10-16T03:15:50;12.60;99.90
36800;DHT22;22752;51.960;5.886;2022-10-16T03:18:16;12.70;99.90
36800;DHT22;22752;51.960;5.886;2022-10-16T03:20:45;12.70;99.90
36800;DHT22;22752;51.960;5.886;2022-10-16T03:23:10;12.70;99.90
36800;DHT22;22752;51.960;5.886;2022-10-16T03:25:36;12.70;99.90
36800;DHT22;22752;51.960;5.886;2022-10-16T03:28:02;12.60;99.90
36800;DHT22;22752;51.960;5.886;2022-10-16T03:30:28;12.60;99.90
36800;DHT22;22752;51.960;5.886;2022-10-16T03:32:54;12.50;99.90
36800;DHT22;22752;51.960;5.886;2022-10-16T03:35:23;12.60;99.90
36800;DHT22;22752;51.960;5.886;2022-10-16T03:37:50;12.60;99.90
36800;DHT22;22752;51.960;5.886;2022-10-16T03:40:16;12.60;99.90
36800;DHT22;22752;51.960;5.886;2022-10-16T03:42:43;12.60;99.90
36800;DHT22;22752;51.960;5.886;2022-10-16T03:45:09;12.60;99.90
36800;DHT22;22752;51.960;5.886;2022-10-16T03:47:35;12.60;99.90
36800;DHT22;22752;51.960;5.886;2022-10-16T03:50:02;12.50;99.90
36800;DHT22;22752;51.960;5.886;2022-10-16T03:52:28;12.50;99.90
36800;DHT22;22752;51.960;5.886;2022-10-16T03:54:53;12.50;99.90
36800;DHT22;22752;51.960;5.886;2022-10-16T03:57:20;12.50;99.90
36800;DHT22;22752;51.960;5.886;2022-10-16T03:59:46;12.50;99.90
36800;DHT22;22752;51.960;5.886;2022-10-16T04:02:12;12.50;99.90
36800;DHT22;22752;51.960;5.886;2022-10-16T04:04:38;12.50;99.90
36800;DHT22;22752;51.960;5.886;2022-10-16T04:07:03;12.50;99.90
36800;DHT22;22752;51.960;5.886;2022-10-16T04:09:29;12.50;99.90
36800;DHT22;22752;51.960;5.886;2022-10-16T04:11:54;12.40;99.90
36800;DHT22;22752;51.960;5.886;2022-10-16T04:14:20;12.50;99.90
36800;DHT22;22752;51.960;5.886;2022-10-16T04:16:46;12.50;99.90
36800;DHT22;22752;51.960;5.886;2022-10-16T04:19:11;12.50;99.90
36800;DHT22;22752;51.960;5.886;2022-10-16T04:21:37;12.60;99.90
36800;DHT22;22752;51.960;5.886;2022-10-16T04:24:03;12.70;99.90
36800;DHT22;22752;51.960;5.886;2022-10-16T04:26:29;12.70;99.90
36800;DHT22;22752;51.960;5.886;2022-10-16T04:28:55;12.80;99.90
36800;DHT22;22752;51.960;5.886;2022-10-16T04:31:20;12.80;99.90
36800;DHT22;22752;51.960;5.886;2022-10-16T04:33:46;12.80;99.90
36800;DHT22;22752;51.960;5.886;2022-10-16T04:36:12;12.90;99.90
36800;DHT22;22752;51.960;5.886;2022-10-16T04:38:38;12.90;99.90
36800;DHT22;22752;51.960;5.886;2022-10-16T04:41:05;12.90;99.90
36800;DHT22;22752;51.960;5.886;2022-10-16T04:43:31;12.90;99.90
36800;DHT22;22752;51.960;5.886;2022-10-16T04:45:56;12.90;99.90
36800;DHT22;22752;51.960;5.886;2022-10-16T04:48:22;12.90;99.90
36800;DHT22;22752;51.960;5.886;2022-10-16T04:50:48;12.80;99.90
36800;DHT22;22752;51.960;5.886;2022-10-16T04:53:13;12.80;99.90
36800;DHT22;22752;51.960;5.886;2022-10-16T04:55:41;12.70;99.90
36800;DHT22;22752;51.960;5.886;2022-10-16T04:58:07;12.60;99.90
36800;DHT22;22752;51.960;5.886;2022-10-16T05:00:33;12.60;99.90
36800;DHT22;22752;51.960;5.886;2022-10-16T05:02:58;12.60;99.90
36800;DHT22;22752;51.960;5.886;2022-10-16T05:05:26;12.60;99.90
36800;DHT22;22752;51.960;5.886;2022-10-16T05:07:52;12.70;99.90
36800;DHT22;22752;51.960;5.886;2022-10-16T05:10:18;12.70;99.90
36800;DHT22;22752;51.960;5.886;2022-10-16T05:12:44;12.70;99.90
36800;DHT22;22752;51.960;5.886;2022-10-16T05:15:10;12.70;99.90
36800;DHT22;22752;51.960;5.886;2022-10-16T05:17:36;12.60;99.90
36800;DHT22;22752;51.960;5.886;2022-10-16T05:20:02;12.50;99.90
36800;DHT22;22752;51.960;5.886;2022-10-16T05:22:28;12.50;99.90
36800;DHT22;22752;51.960;5.886;2022-10-16T05:24:55;12.40;99.90
36800;DHT22;22752;51.960;5.886;2022-10-16T05:27:20;12.40;99.90
36800;DHT22;22752;51.960;5.886;2022-10-16T05:29:47;12.30;99.90
36800;DHT22;22752;51.960;5.886;2022-10-16T05:32:17;12.30;99.90
36800;DHT22;22752;51.960;5.886;2022-10-16T05:34:43;12.20;99.90
36800;DHT22;22752;51.960;5.886;2022-10-16T05:37:09;12.20;99.90
36800;DHT22;22752;51.960;5.886;2022-10-16T05:39:37;12.10;99.90
36800;DHT22;22752;51.960;5.886;2022-10-16T05:42:03;12.10;99.90
36800;DHT22;22752;51.960;5.886;2022-10-16T05:44:29;12.00;99.90
36800;DHT22;22752;51.960;5.886;2022-10-16T05:46:54;12.00;99.90
36800;DHT22;22752;51.960;5.886;2022-10-16T05:49:20;11.90;99.90
36800;DHT22;22752;51.960;5.886;2022-10-16T05:51:46;11.90;99.90
36800;DHT22;22752;51.960;5.886;2022-10-16T05:54:11;11.90;99.90
36800;DHT22;22752;51.960;5.886;2022-10-16T05:56:37;11.90;99.90
36800;DHT22;22752;51.960;5.886;2022-10-16T05:59:04;11.90;99.90
36800;DHT22;22752;51.960;5.886;2022-10-16T06:01:30;11.90;99.90
36800;DHT22;22752;51.960;5.886;2022-10-16T06:03:56;11.80;99.90
36800;DHT22;22752;51.960;5.886;2022-10-16T06:06:24;11.80;99.90
36800;DHT22;22752;51.960;5.886;2022-10-16T06:08:52;11.80;99.90
36800;DHT22;22752;51.960;5.886;2022-10-16T06:11:20;11.80;99.90
36800;DHT22;22752;51.960;5.886;2022-10-16T06:13:54;11.80;99.90
36800;DHT22;22752;51.960;5.886;2022-10-16T06:16:22;11.80;99.90
36800;DHT22;22752;51.960;5.886;2022-10-16T06:18:50;11.90;99.90
36800;DHT22;22752;51.960;5.886;2022-10-16T06:21:22;11.90;99.90
36800;DHT22;22752;51.960;5.886;2022-10-16T06:23:50;12.00;99.90
36800;DHT22;22752;51.960;5.886;2022-10-16T06:26:18;12.10;99.90
36800;DHT22;22752;51.960;5.886;2022-10-16T06:28:44;12.20;99.90
36800;DHT22;22752;51.960;5.886;2022-10-16T06:31:12;12.20;99.90
36800;DHT22;22752;51.960;5.886;2022-10-16T06:33:38;12.40;99.90
36800;DHT22;22752;51.960;5.886;2022-10-16T06:36:15;12.50;99.90
36800;DHT22;22752;51.960;5.886;2022-10-16T06:38:41;12.50;99.90
36800;DHT22;22752;51.960;5.886;2022-10-16T06:41:09;12.60;99.90
36800;DHT22;22752;51.960;5.886;2022-10-16T06:43:34;12.70;99.90
36800;DHT22;22752;51.960;5.886;2022-10-16T06:46:01;12.80;99.90
36800;DHT22;22752;51.960;5.886;2022-10-16T06:48:28;12.90;99.90
36800;DHT22;22752;51.960;5.886;2022-10-16T06:51:01;13.00;99.90
36800;DHT22;22752;51.960;5.886;2022-10-16T06:53:30;13.10;99.90
36800;DHT22;22752;51.960;5.886;2022-10-16T06:55:57;13.10;99.90
36800;DHT22;22752;51.960;5.886;2022-10-16T06:58:23;13.20;99.90
36800;DHT22;22752;51.960;5.886;2022-10-16T07:00:49;13.30;99.90
36800;DHT22;22752;51.960;5.886;2022-10-16T07:03:20;13.40;99.90
36800;DHT22;22752;51.960;5.886;2022-10-16T07:05:45;13.50;99.90
36800;DHT22;22752;51.960;5.886;2022-10-16T07:08:11;13.50;99.90
36800;DHT22;22752;51.960;5.886;2022-10-16T07:10:36;13.50;99.90
36800;DHT22;22752;51.960;5.886;2022-10-16T07:13:02;13.50;99.90
36800;DHT22;22752;51.960;5.886;2022-10-16T07:15:28;13.60;99.90
36800;DHT22;22752;51.960;5.886;2022-10-16T07:17:54;13.60;99.90
36800;DHT22;22752;51.960;5.886;2022-10-16T07:20:20;13.60;99.90
36800;DHT22;22752;51.960;5.886;2022-10-16T07:22:45;13.70;99.90
36800;DHT22;22752;51.960;5.886;2022-10-16T07:25:11;13.70;99.90
36800;DHT22;22752;51.960;5.886;2022-10-16T07:27:37;13.80;99.90
36800;DHT22;22752;51.960;5.886;2022-10-16T07:30:04;13.80;99.90
36800;DHT22;22752;51.960;5.886;2022-10-16T07:32:29;13.90;99.90
36800;DHT22;22752;51.960;5.886;2022-10-16T07:34:55;13.90;99.90
36800;DHT22;22752;51.960;5.886;2022-10-16T07:37:21;13.90;99.90
36800;DHT22;22752;51.960;5.886;2022-10-16T07:39:47;14.00;99.90
36800;DHT22;22752;51.960;5.886;2022-10-16T07:42:13;14.20;99.90
36800;DHT22;22752;51.960;5.886;2022-10-16T07:44:38;14.40;99.90
36800;DHT22;22752;51.960;5.886;2022-10-16T07:47:05;14.50;99.90
36800;DHT22;22752;51.960;5.886;2022-10-16T07:49:31;14.70;99.90
36800;DHT22;22752;51.960;5.886;2022-10-16T07:51:56;15.00;99.90
36800;DHT22;22752;51.960;5.886;2022-10-16T07:54:22;15.40;99.90
36800;DHT22;22752;51.960;5.886;2022-10-16T07:56:48;15.90;99.90
36800;DHT22;22752;51.960;5.886;2022-10-16T07:59:13;16.20;99.90
36800;DHT22;22752;51.960;5.886;2022-10-16T08:01:39;16.40;99.90
36800;DHT22;22752;51.960;5.886;2022-10-16T08:04:05;16.40;99.90
36800;DHT22;22752;51.960;5.886;2022-10-16T08:06:35;16.40;99.90
36800;DHT22;22752;51.960;5.886;2022-10-16T08:09:02;16.40;99.90
36800;DHT22;22752;51.960;5.886;2022-10-16T08:11:28;16.30;99.90
36800;DHT22;22752;51.960;5.886;2022-10-16T08:13:53;16.40;99.90
36800;DHT22;22752;51.960;5.886;2022-10-16T08:16:19;16.40;99.90
36800;DHT22;22752;51.960;5.886;2022-10-16T08:18:45;16.40;99.90
36800;DHT22;22752;51.960;5.886;2022-10-16T08:21:14;16.40;99.90
36800;DHT22;22752;51.960;5.886;2022-10-16T08:23:40;16.40;99.90
36800;DHT22;22752;51.960;5.886;2022-10-16T08:26:07;16.40;99.90
36800;DHT22;22752;51.960;5.886;2022-10-16T08:28:33;16.60;99.90
36800;DHT22;22752;51.960;5.886;2022-10-16T08:31:10;16.70;99.90
36800;DHT22;22752;51.960;5.886;2022-10-16T08:33:37;16.60;99.90
36800;DHT22;22752;51.960;5.886;2022-10-16T08:36:04;16.40;99.90
36800;DHT22;22752;51.960;5.886;2022-10-16T08:38:30;16.40;99.90
36800;DHT22;22752;51.960;5.886;2022-10-16T08:44:19;16.30;99.90
36800;DHT22;22752;51.960;5.886;2022-10-16T08:49:18;16.20;99.90
36800;DHT22;22752;51.960;5.886;2022-10-16T08:51:44;16.10;99.90
36800;DHT22;22752;51.960;5.886;2022-10-16T08:54:31;16.00;99.90
36800;DHT22;22752;51.960;5.886;2022-10-16T08:57:28;15.90;99.90
36800;DHT22;22752;51.960;5.886;2022-10-16T08:59:54;15.90;99.90
36800;DHT22;22752;51.960;5.886;2022-10-16T09:05:24;15.80;99.90
36800;DHT22;22752;51.960;5.886;2022-10-16T09:08:11;15.70;99.90
36800;DHT22;22752;51.960;5.886;2022-10-16T09:13:46;15.70;99.90
36800;DHT22;22752;51.960;5.886;2022-10-16T09:16:33;15.70;99.90
36800;DHT22;22752;51.960;5.886;2022-10-16T09:21:45;15.80;99.90
36800;DHT22;22752;51.960;5.886;2022-10-16T09:24:20;15.80;99.90
36800;DHT22;22752;51.960;5.886;2022-10-16T09:26:47;15.70;99.90
36800;DHT22;22752;51.960;5.886;2022-10-16T09:29:14;15.70;99.90
36800;DHT22;22752;51.960;5.886;2022-10-16T09:31:41;15.80;99.90
36800;DHT22;22752;51.960;5.886;2022-10-16T09:34:32;15.80;99.90
36800;DHT22;22752;51.960;5.886;2022-10-16T09:37:05;15.90;99.90
36800;DHT22;22752;51.960;5.886;2022-10-16T09:39:52;15.90;99.90
36800;DHT22;22752;51.960;5.886;2022-10-16T09:42:27;15.90;99.90
36800;DHT22;22752;51.960;5.886;2022-10-16T09:44:56;15.90;99.90
36800;DHT22;22752;51.960;5.886;2022-10-16T09:47:26;15.90;99.90
36800;DHT22;22752;51.960;5.886;2022-10-16T09:49:59;15.90;99.90
36800;DHT22;22752;51.960;5.886;2022-10-16T09:52:28;15.90;99.90
36800;DHT22;22752;51.960;5.886;2022-10-16T09:55:12;15.90;99.90
36800;DHT22;22752;51.960;5.886;2022-10-16T09:57:52;15.90;99.90
36800;DHT22;22752;51.960;5.886;2022-10-16T10:00:18;15.90;99.90
36800;DHT22;22752;51.960;5.886;2022-10-16T10:02:45;16.00;99.90
36800;DHT22;22752;51.960;5.886;2022-10-16T10:05:25;16.00;99.90
36800;DHT22;22752;51.960;5.886;2022-10-16T10:07:59;16.10;99.90
36800;DHT22;22752;51.960;5.886;2022-10-16T10:10:30;16.10;99.90
36800;DHT22;22752;51.960;5.886;2022-10-16T10:12:57;16.20;99.90
36800;DHT22;22752;51.960;5.886;2022-10-16T10:15:32;16.20;99.90
36800;DHT22;22752;51.960;5.886;2022-10-16T10:17:58;16.30;99.90
36800;DHT22;22752;51.960;5.886;2022-10-16T10:22:53;16.40;99.90
36800;DHT22;22752;51.960;5.886;2022-10-16T10:34:06;16.70;99.90
36800;DHT22;22752;51.960;5.886;2022-10-16T10:36:37;16.70;99.90
36800;DHT22;22752;51.960;5.886;2022-10-16T10:39:38;16.80;99.90
36800;DHT22;22752;51.960;5.886;2022-10-16T10:51:06;16.90;99.90
36800;DHT22;22752;51.960;5.886;2022-10-16T10:53:55;17.00;99.90
36800;DHT22;22752;51.960;5.886;2022-10-16T11:07:31;17.30;99.90
36800;DHT22;22752;51.960;5.886;2022-10-16T11:10:03;17.30;99.90
36800;DHT22;22752;51.960;5.886;2022-10-16T11:12:42;17.40;99.90
36800;DHT22;22752;51.960;5.886;2022-10-16T11:17:49;17.50;99.90
36800;DHT22;22752;51.960;5.886;2022-10-16T11:20:21;17.50;99.90
36800;DHT22;22752;51.960;5.886;2022-10-16T11:25:26;17.70;99.90
36800;DHT22;22752;51.960;5.886;2022-10-16T11:28:10;17.70;99.90
36800;DHT22;22752;51.960;5.886;2022-10-16T11:30:50;17.70;99.90
36800;DHT22;22752;51.960;5.886;2022-10-16T11:36:04;17.70;99.90
36800;DHT22;22752;51.960;5.886;2022-10-16T11:50:35;17.60;99.90
36800;DHT22;22752;51.960;5.886;2022-10-16T11:56:06;17.60;99.90
36800;DHT22;22752;51.960;5.886;2022-10-16T11:58:40;17.60;99.90
36800;DHT22;22752;51.960;5.886;2022-10-16T12:01:21;17.60;99.90
36800;DHT22;22752;51.960;5.886;2022-10-16T12:07:09;17.60;99.90
36800;DHT22;22752;51.960;5.886;2022-10-16T12:09:39;17.60;99.90
36800;DHT22;22752;51.960;5.886;2022-10-16T12:12:27;17.60;99.90
36800;DHT22;22752;51.960;5.886;2022-10-16T12:15:19;17.60;99.90
36800;DHT22;22752;51.960;5.886;2022-10-16T12:17:45;17.50;99.90
36800;DHT22;22752;51.960;5.886;2022-10-16T12:23:03;17.50;99.90
36800;DHT22;22752;51.960;5.886;2022-10-16T12:25:34;17.60;99.90
36800;DHT22;22752;51.960;5.886;2022-10-16T12:28:05;17.60;99.90
36800;DHT22;22752;51.960;5.886;2022-10-16T12:30:36;17.60;99.90
36800;DHT22;22752;51.960;5.886;2022-10-16T12:33:24;17.70;99.90
36800;DHT22;22752;51.960;5.886;2022-10-16T12:35:50;17.70;99.90
36800;DHT22;22752;51.960;5.886;2022-10-16T12:38:20;17.70;99.90
36800;DHT22;22752;51.960;5.886;2022-10-16T12:40:58;17.70;99.90
36800;DHT22;22752;51.960;5.886;2022-10-16T12:43:34;17.80;99.90
36800;DHT22;22752;51.960;5.886;2022-10-16T12:46:19;17.80;99.90
36800;DHT22;22752;51.960;5.886;2022-10-16T12:48:46;17.80;99.90
36800;DHT22;22752;51.960;5.886;2022-10-16T12:57:12;17.90;99.90
36800;DHT22;22752;51.960;5.886;2022-10-16T13:07:46;18.00;99.90
36800;DHT22;22752;51.960;5.886;2022-10-16T13:15:48;18.10;99.90
36800;DHT22;22752;51.960;5.886;2022-10-16T13:21:25;18.00;99.90
36800;DHT22;22752;51.960;5.886;2022-10-16T13:24:14;18.00;99.90
36800;DHT22;22752;51.960;5.886;2022-10-16T13:27:10;18.10;99.90
36800;DHT22;22752;51.960;5.886;2022-10-16T13:29:38;18.10;99.90
36800;DHT22;22752;51.960;5.886;2022-10-16T13:32:11;18.20;99.90
36800;DHT22;22752;51.960;5.886;2022-10-16T13:34:46;18.20;99.90
36800;DHT22;22752;51.960;5.886;2022-10-16T13:37:22;18.30;99.90
36800;DHT22;22752;51.960;5.886;2022-10-16T13:39:48;18.30;99.90
36800;DHT22;22752;51.960;5.886;2022-10-16T13:44:53;18.50;99.90
36800;DHT22;22752;51.960;5.886;2022-10-16T13:47:29;18.60;99.90
36800;DHT22;22752;51.960;5.886;2022-10-16T13:50:16;18.70;99.90
36800;DHT22;22752;51.960;5.886;2022-10-16T13:52:42;18.70;99.90
36800;DHT22;22752;51.960;5.886;2022-10-16T13:55:15;18.70;99.90
36800;DHT22;22752;51.960;5.886;2022-10-16T13:57:41;18.80;99.90
36800;DHT22;22752;51.960;5.886;2022-10-16T14:00:25;18.80;99.90
36800;DHT22;22752;51.960;5.886;2022-10-16T14:03:04;18.80;99.90
36800;DHT22;22752;51.960;5.886;2022-10-16T14:05:31;18.70;99.90
36800;DHT22;22752;51.960;5.886;2022-10-16T14:07:57;18.60;99.90
36800;DHT22;22752;51.960;5.886;2022-10-16T14:10:26;18.60;99.90
36800;DHT22;22752;51.960;5.886;2022-10-16T14:13:01;18.60;99.90
36800;DHT22;22752;51.960;5.886;2022-10-16T14:15:30;18.50;99.90
36800;DHT22;22752;51.960;5.886;2022-10-16T14:17:57;18.50;99.90
36800;DHT22;22752;51.960;5.886;2022-10-16T14:20:29;18.50;99.90
36800;DHT22;22752;51.960;5.886;2022-10-16T14:23:00;18.50;99.90
36800;DHT22;22752;51.960;5.886;2022-10-16T14:25:29;18.40;99.90
36800;DHT22;22752;51.960;5.886;2022-10-16T14:28:04;18.40;99.90
36800;DHT22;22752;51.960;5.886;2022-10-16T14:30:32;18.40;99.90
36800;DHT22;22752;51.960;5.886;2022-10-16T14:33:00;18.30;99.90
36800;DHT22;22752;51.960;5.886;2022-10-16T14:37:53;18.20;99.90
36800;DHT22;22752;51.960;5.886;2022-10-16T14:40:22;18.20;99.90
36800;DHT22;22752;51.960;5.886;2022-10-16T14:42:48;18.30;99.90
36800;DHT22;22752;51.960;5.886;2022-10-16T14:45:19;18.30;99.90
36800;DHT22;22752;51.960;5.886;2022-10-16T14:47:52;18.40;99.90
36800;DHT22;22752;51.960;5.886;2022-10-16T14:50:18;18.40;99.90
36800;DHT22;22752;51.960;5.886;2022-10-16T14:52:44;18.30;99.90
36800;DHT22;22752;51.960;5.886;2022-10-16T14:55:10;18.20;99.90
36800;DHT22;22752;51.960;5.886;2022-10-16T14:57:37;18.10;99.90
36800;DHT22;22752;51.960;5.886;2022-10-16T15:00:13;18.00;99.90
36800;DHT22;22752;51.960;5.886;2022-10-16T15:02:40;17.80;99.90
36800;DHT22;22752;51.960;5.886;2022-10-16T15:07:40;17.80;99.90
36800;DHT22;22752;51.960;5.886;2022-10-16T15:10:06;17.80;99.90
36800;DHT22;22752;51.960;5.886;2022-10-16T15:12:32;17.90;99.90
36800;DHT22;22752;51.960;5.886;2022-10-16T15:14:57;17.90;99.90
36800;DHT22;22752;51.960;5.886;2022-10-16T15:17:23;17.90;99.90
36800;DHT22;22752;51.960;5.886;2022-10-16T15:19:48;17.90;99.90
36800;DHT22;22752;51.960;5.886;2022-10-16T15:22:14;17.80;99.90
36800;DHT22;22752;51.960;5.886;2022-10-16T15:24:40;17.70;99.90
36800;DHT22;22752;51.960;5.886;2022-10-16T15:27:05;17.60;99.90
36800;DHT22;22752;51.960;5.886;2022-10-16T15:29:31;17.50;99.90
36800;DHT22;22752;51.960;5.886;2022-10-16T15:31:57;17.50;99.90
36800;DHT22;22752;51.960;5.886;2022-10-16T15:34:22;17.30;99.90
36800;DHT22;22752;51.960;5.886;2022-10-16T15:36:48;17.20;99.90
36800;DHT22;22752;51.960;5.886;2022-10-16T15:39:21;17.10;99.90
36800;DHT22;22752;51.960;5.886;2022-10-16T15:41:47;17.00;99.90
36800;DHT22;22752;51.960;5.886;2022-10-16T15:44:16;16.90;99.90
36800;DHT22;22752;51.960;5.886;2022-10-16T15:46:42;16.80;99.90
36800;DHT22;22752;51.960;5.886;2022-10-16T15:49:08;16.80;99.90
36800;DHT22;22752;51.960;5.886;2022-10-16T15:51:38;16.80;99.90
36800;DHT22;22752;51.960;5.886;2022-10-16T15:54:04;16.80;99.90
36800;DHT22;22752;51.960;5.886;2022-10-16T15:56:30;16.80;99.90
36800;DHT22;22752;51.960;5.886;2022-10-16T15:58:59;16.70;99.90
36800;DHT22;22752;51.960;5.886;2022-10-16T16:01:25;16.70;99.90
36800;DHT22;22752;51.960;5.886;2022-10-16T16:03:54;16.70;99.90
36800;DHT22;22752;51.960;5.886;2022-10-16T16:06:22;16.60;99.90
36800;DHT22;22752;51.960;5.886;2022-10-16T16:08:49;16.50;99.90
36800;DHT22;22752;51.960;5.886;2022-10-16T16:11:16;16.40;99.90
36800;DHT22;22752;51.960;5.886;2022-10-16T16:13:42;16.40;99.90
36800;DHT22;22752;51.960;5.886;2022-10-16T16:16:10;16.30;99.90
36800;DHT22;22752;51.960;5.886;2022-10-16T16:18:37;16.20;99.90
36800;DHT22;22752;51.960;5.886;2022-10-16T16:21:03;16.10;99.90
36800;DHT22;22752;51.960;5.886;2022-10-16T16:23:29;16.10;99.90
36800;DHT22;22752;51.960;5.886;2022-10-16T16:26:14;16.00;99.90
36800;DHT22;22752;51.960;5.886;2022-10-16T16:28:42;16.00;99.90
36800;DHT22;22752;51.960;5.886;2022-10-16T16:31:08;15.80;99.90
36800;DHT22;22752;51.960;5.886;2022-10-16T16:33:34;15.80;99.90
36800;DHT22;22752;51.960;5.886;2022-10-16T16:36:02;15.80;99.90
36800;DHT22;22752;51.960;5.886;2022-10-16T16:38:29;15.70;99.90
36800;DHT22;22752;51.960;5.886;2022-10-16T16:40:55;15.70;99.90
36800;DHT22;22752;51.960;5.886;2022-10-16T16:43:27;15.60;99.90
36800;DHT22;22752;51.960;5.886;2022-10-16T16:45:54;15.60;99.90
36800;DHT22;22752;51.960;5.886;2022-10-16T16:48:20;15.50;99.90
36800;DHT22;22752;51.960;5.886;2022-10-16T16:50:46;15.50;99.90
36800;DHT22;22752;51.960;5.886;2022-10-16T16:53:11;15.40;99.90
36800;DHT22;22752;51.960;5.886;2022-10-16T16:55:37;15.40;99.90
36800;DHT22;22752;51.960;5.886;2022-10-16T16:58:03;15.30;99.90
36800;DHT22;22752;51.960;5.886;2022-10-16T17:00:29;15.30;99.90
36800;DHT22;22752;51.960;5.886;2022-10-16T17:02:56;15.20;99.90
36800;DHT22;22752;51.960;5.886;2022-10-16T17:05:22;15.20;99.90
36800;DHT22;22752;51.960;5.886;2022-10-16T17:07:48;15.10;99.90
36800;DHT22;22752;51.960;5.886;2022-10-16T17:10:14;15.10;99.90
36800;DHT22;22752;51.960;5.886;2022-10-16T17:12:39;15.00;99.90
36800;DHT22;22752;51.960;5.886;2022-10-16T17:15:06;15.00;99.90
36800;DHT22;22752;51.960;5.886;2022-10-16T17:17:32;14.90;99.90
36800;DHT22;22752;51.960;5.886;2022-10-16T17:19:57;14.80;99.90
36800;DHT22;22752;51.960;5.886;2022-10-16T17:22:23;14.80;99.90
36800;DHT22;22752;51.960;5.886;2022-10-16T17:24:49;14.80;99.90
36800;DHT22;22752;51.960;5.886;2022-10-16T17:27:19;14.80;99.90
36800;DHT22;22752;51.960;5.886;2022-10-16T17:29:50;14.80;99.90
36800;DHT22;22752;51.960;5.886;2022-10-16T17:32:15;14.90;99.90
36800;DHT22;22752;51.960;5.886;2022-10-16T17:34:41;14.90;99.90